Prenton, United Kingdom
Current Conditions -  °F | °C
As of 10:20 AM on Wednesday 26 Nov 2014 (Local Time) from EGGP Reporting Station
Broken Clouds Broken Clouds  
Wind Chill: 44°   Ceiling: 2000
Heat Index: 46°   Visibility: 4mi
Dew Point: 45°   Wind: 5mph
Humidity: 93%   Direction: 30°NNE
Pressure: 29.91"   Gusts: NA
Location:  53.37°N, 3.06°W
Report Text: EGGP 261020Z 03004KT 7000 FEW016 BKN020 08/07 Q1013
Loading
Personal Weather Stations






























Interactive Weather Map New forecast layout! Learn more

10-Day Weather Forecast

Advertisements
Track Severe Weather on mobile